sensor_id;sensor_type;location;lat;lon;timestamp;pressure;altitude;pressure_sealevel;temperature;humidity
13800;BME280;6971;50.028;9.258;2022-08-20T00:02:14;99271.22;;;15.57;100.00
13800;BME280;6971;50.028;9.258;2022-08-20T00:07:16;99276.16;;;15.50;100.00
13800;BME280;6971;50.028;9.258;2022-08-20T00:12:17;99283.28;;;15.38;100.00
13800;BME280;6971;50.028;9.258;2022-08-20T00:17:18;99287.25;;;15.33;100.00
13800;BME280;6971;50.028;9.258;2022-08-20T00:22:19;99289.41;;;15.27;100.00
13800;BME280;6971;50.028;9.258;2022-08-20T00:27:20;99284.78;;;15.18;100.00
13800;BME280;6971;50.028;9.258;2022-08-20T00:32:21;99295.94;;;14.99;100.00
13800;BME280;6971;50.028;9.258;2022-08-20T00:37:22;99293.88;;;14.91;100.00
13800;BME280;6971;50.028;9.258;2022-08-20T00:42:22;99289.50;;;14.90;100.00
13800;BME280;6971;50.028;9.258;2022-08-20T00:47:24;99294.53;;;14.82;100.00
13800;BME280;6971;50.028;9.258;2022-08-20T00:52:27;99280.13;;;14.73;100.00
13800;BME280;6971;50.028;9.258;2022-08-20T00:57:37;99295.03;;;14.62;100.00
13800;BME280;6971;50.028;9.258;2022-08-20T01:02:39;99300.16;;;14.53;100.00
13800;BME280;6971;50.028;9.258;2022-08-20T01:07:42;99302.50;;;14.44;100.00
13800;BME280;6971;50.028;9.258;2022-08-20T01:12:46;99308.97;;;14.40;100.00
13800;BME280;6971;50.028;9.258;2022-08-20T01:17:50;99304.25;;;14.32;100.00
13800;BME280;6971;50.028;9.258;2022-08-20T01:28:42;99305.97;;;14.20;100.00
13800;BME280;6971;50.028;9.258;2022-08-20T01:33:44;99309.69;;;14.18;100.00
13800;BME280;6971;50.028;9.258;2022-08-20T01:38:46;99320.59;;;14.13;100.00
13800;BME280;6971;50.028;9.258;2022-08-20T01:43:49;99330.59;;;14.09;100.00
13800;BME280;6971;50.028;9.258;2022-08-20T01:48:51;99331.84;;;14.04;100.00
13800;BME280;6971;50.028;9.258;2022-08-20T01:53:55;99337.16;;;14.04;100.00
13800;BME280;6971;50.028;9.258;2022-08-20T01:58:59;99340.34;;;13.96;100.00
13800;BME280;6971;50.028;9.258;2022-08-20T02:04:03;99349.56;;;13.90;100.00
13800;BME280;6971;50.028;9.258;2022-08-20T02:09:04;99360.56;;;13.84;100.00
13800;BME280;6971;50.028;9.258;2022-08-20T02:14:08;99361.31;;;13.86;100.00
13800;BME280;6971;50.028;9.258;2022-08-20T02:19:19;99361.31;;;13.86;100.00
13800;BME280;6971;50.028;9.258;2022-08-20T02:24:21;99363.13;;;13.86;100.00
13800;BME280;6971;50.028;9.258;2022-08-20T02:29:21;99364.50;;;13.78;100.00
13800;BME280;6971;50.028;9.258;2022-08-20T02:34:23;99365.75;;;13.86;100.00
13800;BME280;6971;50.028;9.258;2022-08-20T02:39:23;99352.84;;;13.94;100.00
13800;BME280;6971;50.028;9.258;2022-08-20T02:44:26;99360.47;;;13.99;100.00
13800;BME280;6971;50.028;9.258;2022-08-20T02:49:27;99356.88;;;14.00;100.00
13800;BME280;6971;50.028;9.258;2022-08-20T02:54:28;99356.31;;;14.07;100.00
13800;BME280;6971;50.028;9.258;2022-08-20T02:59:28;99346.16;;;14.14;100.00
13800;BME280;6971;50.028;9.258;2022-08-20T03:04:29;99356.03;;;14.12;100.00
13800;BME280;6971;50.028;9.258;2022-08-20T03:09:31;99343.06;;;14.20;100.00
13800;BME280;6971;50.028;9.258;2022-08-20T03:14:32;99340.09;;;14.25;100.00
13800;BME280;6971;50.028;9.258;2022-08-20T03:19:34;99347.06;;;14.26;100.00
13800;BME280;6971;50.028;9.258;2022-08-20T03:24:34;99343.50;;;14.27;100.00
13800;BME280;6971;50.028;9.258;2022-08-20T03:29:35;99343.16;;;14.32;100.00
13800;BME280;6971;50.028;9.258;2022-08-20T03:34:37;99341.34;;;14.32;100.00
13800;BME280;6971;50.028;9.258;2022-08-20T03:39:39;99345.59;;;14.35;100.00
13800;BME280;6971;50.028;9.258;2022-08-20T03:44:40;99345.25;;;14.40;100.00
13800;BME280;6971;50.028;9.258;2022-08-20T03:49:42;99345.59;;;14.35;100.00
13800;BME280;6971;50.028;9.258;2022-08-20T03:54:43;99353.03;;;14.30;100.00
13800;BME280;6971;50.028;9.258;2022-08-20T03:59:45;99347.81;;;14.28;100.00
13800;BME280;6971;50.028;9.258;2022-08-20T04:04:46;99349.63;;;14.28;100.00
13800;BME280;6971;50.028;9.258;2022-08-20T04:09:48;99340.94;;;14.26;100.00
13800;BME280;6971;50.028;9.258;2022-08-20T04:15:06;99350.28;;;14.18;100.00
13800;BME280;6971;50.028;9.258;2022-08-20T04:20:10;99343.59;;;14.26;100.00
13800;BME280;6971;50.028;9.258;2022-08-20T04:25:11;99351.53;;;14.26;100.00
13800;BME280;6971;50.028;9.258;2022-08-20T04:30:13;99349.41;;;14.31;100.00
13800;BME280;6971;50.028;9.258;2022-08-20T04:35:15;99347.38;;;14.34;100.00
13800;BME280;6971;50.028;9.258;2022-08-20T04:40:17;99350.69;;;14.38;100.00
13800;BME280;6971;50.028;9.258;2022-08-20T04:45:37;99360.09;;;14.42;100.00
13800;BME280;6971;50.028;9.258;2022-08-20T04:50:41;99368.88;;;14.43;100.00
13800;BME280;6971;50.028;9.258;2022-08-20T04:55:44;99363.28;;;14.47;100.00
13800;BME280;6971;50.028;9.258;2022-08-20T05:00:50;99367.16;;;14.55;100.00
13800;BME280;6971;50.028;9.258;2022-08-20T05:05:52;99375.66;;;14.60;100.00
13800;BME280;6971;50.028;9.258;2022-08-20T05:10:54;99380.72;;;14.63;100.00
13800;BME280;6971;50.028;9.258;2022-08-20T05:15:56;99387.72;;;14.77;100.00
13800;BME280;6971;50.028;9.258;2022-08-20T05:21:02;99385.47;;;14.84;100.00
13800;BME280;6971;50.028;9.258;2022-08-20T05:26:06;99391.69;;;14.96;100.00
13800;BME280;6971;50.028;9.258;2022-08-20T05:31:09;99401.81;;;15.15;100.00
13800;BME280;6971;50.028;9.258;2022-08-20T05:36:11;99409.59;;;15.30;100.00
13800;BME280;6971;50.028;9.258;2022-08-20T05:41:12;99411.81;;;15.47;100.00
13800;BME280;6971;50.028;9.258;2022-08-20T05:46:13;99416.00;;;15.63;100.00
13800;BME280;6971;50.028;9.258;2022-08-20T05:51:17;99416.28;;;15.83;100.00
13800;BME280;6971;50.028;9.258;2022-08-20T05:56:19;99421.75;;;15.92;100.00
13800;BME280;6971;50.028;9.258;2022-08-20T06:01:20;99422.38;;;15.96;100.00
13800;BME280;6971;50.028;9.258;2022-08-20T06:06:21;99425.91;;;16.08;100.00
13800;BME280;6971;50.028;9.258;2022-08-20T06:11:22;99429.31;;;16.10;100.00
13800;BME280;6971;50.028;9.258;2022-08-20T06:16:24;99427.25;;;16.14;100.00
13800;BME280;6971;50.028;9.258;2022-08-20T06:21:27;99430.88;;;16.13;100.00
13800;BME280;6971;50.028;9.258;2022-08-20T06:26:28;99432.22;;;16.18;100.00
13800;BME280;6971;50.028;9.258;2022-08-20T06:31:30;99425.09;;;16.30;100.00
13800;BME280;6971;50.028;9.258;2022-08-20T06:36:32;99434.41;;;16.36;100.00
13800;BME280;6971;50.028;9.258;2022-08-20T06:41:34;99428.72;;;16.52;100.00
13800;BME280;6971;50.028;9.258;2022-08-20T06:46:59;99434.03;;;16.52;100.00
13800;BME280;6971;50.028;9.258;2022-08-20T06:52:00;99436.44;;;16.67;100.00
13800;BME280;6971;50.028;9.258;2022-08-20T06:57:03;99431.84;;;16.69;100.00
13800;BME280;6971;50.028;9.258;2022-08-20T07:02:04;99437.16;;;16.80;100.00
13800;BME280;6971;50.028;9.258;2022-08-20T07:07:14;99437.84;;;16.94;100.00
13800;BME280;6971;50.028;9.258;2022-08-20T07:12:29;99450.94;;;17.08;100.00
13800;BME280;6971;50.028;9.258;2022-08-20T07:17:30;99452.72;;;17.19;100.00
13800;BME280;6971;50.028;9.258;2022-08-20T07:22:31;99446.47;;;17.42;100.00
13800;BME280;6971;50.028;9.258;2022-08-20T07:27:36;99449.59;;;17.47;100.00
13800;BME280;6971;50.028;9.258;2022-08-20T07:32:37;99447.72;;;17.59;100.00
13800;BME280;6971;50.028;9.258;2022-08-20T07:37:41;99456.41;;;17.94;100.00
13800;BME280;6971;50.028;9.258;2022-08-20T07:42:42;99461.28;;;17.88;100.00
13800;BME280;6971;50.028;9.258;2022-08-20T07:47:44;99477.00;;;17.92;100.00
13800;BME280;6971;50.028;9.258;2022-08-20T07:52:46;99461.53;;;17.64;100.00
13800;BME280;6971;50.028;9.258;2022-08-20T07:57:49;99464.47;;;17.49;100.00
13800;BME280;6971;50.028;9.258;2022-08-20T08:02:51;99465.25;;;17.73;100.00
13800;BME280;6971;50.028;9.258;2022-08-20T08:08:13;99468.75;;;17.95;100.00
13800;BME280;6971;50.028;9.258;2022-08-20T08:13:17;99473.09;;;17.53;100.00
13800;BME280;6971;50.028;9.258;2022-08-20T08:18:23;99473.69;;;17.78;100.00
13800;BME280;6971;50.028;9.258;2022-08-20T08:23:25;99469.00;;;17.92;100.00
13800;BME280;6971;50.028;9.258;2022-08-20T08:28:26;99470.28;;;18.61;100.00
13800;BME280;6971;50.028;9.258;2022-08-20T08:33:30;99477.53;;;19.41;100.00
13800;BME280;6971;50.028;9.258;2022-08-20T08:38:33;99476.97;;;19.97;100.00
13800;BME280;6971;50.028;9.258;2022-08-20T08:43:34;99478.38;;;19.32;100.00
13800;BME280;6971;50.028;9.258;2022-08-20T08:48:39;99477.41;;;19.53;100.00
13800;BME280;6971;50.028;9.258;2022-08-20T08:53:50;99485.84;;;19.78;100.00
13800;BME280;6971;50.028;9.258;2022-08-20T08:58:54;99487.06;;;19.14;100.00
13800;BME280;6971;50.028;9.258;2022-08-20T09:03:57;99487.09;;;19.34;100.00
13800;BME280;6971;50.028;9.258;2022-08-20T09:09:02;99484.28;;;19.46;100.00
13800;BME280;6971;50.028;9.258;2022-08-20T09:14:03;99469.13;;;19.46;100.00
13800;BME280;6971;50.028;9.258;2022-08-20T09:19:04;99481.47;;;19.67;100.00
13800;BME280;6971;50.028;9.258;2022-08-20T09:24:14;99489.38;;;19.49;100.00
13800;BME280;6971;50.028;9.258;2022-08-20T09:29:16;99488.47;;;19.18;100.00
13800;BME280;6971;50.028;9.258;2022-08-20T09:34:17;99489.69;;;20.43;100.00
13800;BME280;6971;50.028;9.258;2022-08-20T09:39:17;99493.22;;;21.56;100.00
13800;BME280;6971;50.028;9.258;2022-08-20T09:44:18;99481.97;;;22.07;91.77
13800;BME280;6971;50.028;9.258;2022-08-20T09:49:38;99484.38;;;21.55;94.68
13800;BME280;6971;50.028;9.258;2022-08-20T09:54:40;99470.69;;;22.91;85.15
13800;BME280;6971;50.028;9.258;2022-08-20T09:59:41;99467.69;;;23.02;81.58
13800;BME280;6971;50.028;9.258;2022-08-20T10:04:43;99464.28;;;23.35;81.00
13800;BME280;6971;50.028;9.258;2022-08-20T10:09:44;99446.53;;;22.99;81.88
13800;BME280;6971;50.028;9.258;2022-08-20T10:14:45;99463.78;;;22.53;85.71
13800;BME280;6971;50.028;9.258;2022-08-20T10:19:45;99460.00;;;22.64;81.49
13800;BME280;6971;50.028;9.258;2022-08-20T10:24:47;99459.13;;;22.55;84.51
13800;BME280;6971;50.028;9.258;2022-08-20T10:29:48;99459.09;;;22.90;80.87
13800;BME280;6971;50.028;9.258;2022-08-20T10:34:49;99448.59;;;22.36;82.20
13800;BME280;6971;50.028;9.258;2022-08-20T10:39:51;99436.41;;;22.85;79.52
13800;BME280;6971;50.028;9.258;2022-08-20T10:44:53;99450.34;;;22.53;81.79
13800;BME280;6971;50.028;9.258;2022-08-20T10:49:58;99453.91;;;21.74;81.47
13800;BME280;6971;50.028;9.258;2022-08-20T10:54:59;99451.22;;;21.74;85.69
13800;BME280;6971;50.028;9.258;2022-08-20T11:00:00;99459.31;;;21.28;100.00
13800;BME280;6971;50.028;9.258;2022-08-20T11:05:04;99466.28;;;21.39;100.00
13800;BME280;6971;50.028;9.258;2022-08-20T11:10:06;99465.81;;;20.97;100.00
13800;BME280;6971;50.028;9.258;2022-08-20T11:15:07;99461.31;;;20.70;100.00
13800;BME280;6971;50.028;9.258;2022-08-20T11:20:10;99449.28;;;20.46;100.00
13800;BME280;6971;50.028;9.258;2022-08-20T11:25:11;99446.84;;;20.53;100.00
13800;BME280;6971;50.028;9.258;2022-08-20T11:30:39;99437.16;;;20.52;100.00
13800;BME280;6971;50.028;9.258;2022-08-20T11:35:41;99436.78;;;20.65;100.00
13800;BME280;6971;50.028;9.258;2022-08-20T11:40:42;99434.28;;;20.63;100.00
13800;BME280;6971;50.028;9.258;2022-08-20T11:45:49;99436.59;;;21.04;100.00
13800;BME280;6971;50.028;9.258;2022-08-20T11:50:51;99431.50;;;21.65;100.00
13800;BME280;6971;50.028;9.258;2022-08-20T11:55:53;99437.53;;;24.33;91.09
13800;BME280;6971;50.028;9.258;2022-08-20T12:00:54;99439.69;;;25.18;73.90
13800;BME280;6971;50.028;9.258;2022-08-20T12:05:55;99424.97;;;23.76;78.66
13800;BME280;6971;50.028;9.258;2022-08-20T12:10:59;99428.75;;;25.66;75.04
13800;BME280;6971;50.028;9.258;2022-08-20T12:16:17;99423.03;;;25.85;71.28
13800;BME280;6971;50.028;9.258;2022-08-20T12:21:18;99415.41;;;25.41;68.22
13800;BME280;6971;50.028;9.258;2022-08-20T12:26:19;99401.47;;;25.61;68.15
13800;BME280;6971;50.028;9.258;2022-08-20T12:31:20;99415.47;;;25.33;68.38
13800;BME280;6971;50.028;9.258;2022-08-20T12:36:20;99407.22;;;24.31;70.03
13800;BME280;6971;50.028;9.258;2022-08-20T12:41:21;99399.69;;;24.02;72.00
13800;BME280;6971;50.028;9.258;2022-08-20T12:46:22;99399.78;;;23.60;73.02
13800;BME280;6971;50.028;9.258;2022-08-20T12:51:23;99415.84;;;24.27;69.14
13800;BME280;6971;50.028;9.258;2022-08-20T12:56:24;99404.88;;;25.08;66.44
13800;BME280;6971;50.028;9.258;2022-08-20T13:01:25;99405.88;;;25.54;63.61
13800;BME280;6971;50.028;9.258;2022-08-20T13:06:26;99400.44;;;25.62;61.98
13800;BME280;6971;50.028;9.258;2022-08-20T13:11:27;99393.84;;;25.41;61.54
13800;BME280;6971;50.028;9.258;2022-08-20T13:16:29;99386.44;;;25.67;59.45
13800;BME280;6971;50.028;9.258;2022-08-20T13:21:30;99380.25;;;24.80;60.96
13800;BME280;6971;50.028;9.258;2022-08-20T13:26:31;99388.16;;;24.89;61.59
13800;BME280;6971;50.028;9.258;2022-08-20T13:31:32;99383.25;;;25.16;61.72
13800;BME280;6971;50.028;9.258;2022-08-20T13:36:33;99374.88;;;24.80;63.76
13800;BME280;6971;50.028;9.258;2022-08-20T13:41:34;99371.38;;;24.71;62.38
13800;BME280;6971;50.028;9.258;2022-08-20T13:46:36;99365.75;;;24.49;63.05
13800;BME280;6971;50.028;9.258;2022-08-20T13:51:37;99360.28;;;24.66;59.87
13800;BME280;6971;50.028;9.258;2022-08-20T13:56:38;99356.56;;;24.67;58.94
13800;BME280;6971;50.028;9.258;2022-08-20T14:01:40;99360.94;;;24.76;58.83
13800;BME280;6971;50.028;9.258;2022-08-20T14:06:40;99363.53;;;24.61;60.17
13800;BME280;6971;50.028;9.258;2022-08-20T14:11:42;99364.72;;;24.58;59.20
13800;BME280;6971;50.028;9.258;2022-08-20T14:16:44;99357.03;;;24.47;60.18
13800;BME280;6971;50.028;9.258;2022-08-20T14:21:45;99366.78;;;24.48;59.75
13800;BME280;6971;50.028;9.258;2022-08-20T14:26:46;99358.78;;;25.41;56.18
13800;BME280;6971;50.028;9.258;2022-08-20T14:31:46;99365.59;;;25.52;55.63
13800;BME280;6971;50.028;9.258;2022-08-20T14:36:47;99355.09;;;25.42;55.57
13800;BME280;6971;50.028;9.258;2022-08-20T14:41:49;99358.16;;;26.08;54.10
13800;BME280;6971;50.028;9.258;2022-08-20T14:46:50;99358.53;;;25.51;55.68
13800;BME280;6971;50.028;9.258;2022-08-20T14:51:51;99367.44;;;25.37;57.52
13800;BME280;6971;50.028;9.258;2022-08-20T14:56:52;99373.06;;;25.27;55.76
13800;BME280;6971;50.028;9.258;2022-08-20T15:01:55;99370.81;;;23.20;67.07
13800;BME280;6971;50.028;9.258;2022-08-20T15:06:56;99370.34;;;23.33;68.40
13800;BME280;6971;50.028;9.258;2022-08-20T15:11:57;99368.41;;;24.17;67.71
13800;BME280;6971;50.028;9.258;2022-08-20T15:16:59;99360.94;;;24.36;68.49
13800;BME280;6971;50.028;9.258;2022-08-20T15:22:00;99363.81;;;24.34;69.01
13800;BME280;6971;50.028;9.258;2022-08-20T15:32:13;99348.22;;;24.21;69.38
13800;BME280;6971;50.028;9.258;2022-08-20T15:37:22;99345.91;;;24.50;68.26
13800;BME280;6971;50.028;9.258;2022-08-20T15:42:35;99338.44;;;24.60;70.83
13800;BME280;6971;50.028;9.258;2022-08-20T15:47:48;99343.66;;;24.22;77.93
13800;BME280;6971;50.028;9.258;2022-08-20T15:52:50;99341.09;;;23.72;82.26
13800;BME280;6971;50.028;9.258;2022-08-20T16:04:01;99325.91;;;22.71;88.30
13800;BME280;6971;50.028;9.258;2022-08-20T16:14:36;99339.97;;;22.13;93.62
13800;BME280;6971;50.028;9.258;2022-08-20T16:19:55;99337.09;;;21.80;96.29
13800;BME280;6971;50.028;9.258;2022-08-20T16:24:59;99348.06;;;21.95;97.42
13800;BME280;6971;50.028;9.258;2022-08-20T16:30:06;99343.88;;;22.27;91.80
13800;BME280;6971;50.028;9.258;2022-08-20T16:40:43;99362.28;;;23.33;88.04
13800;BME280;6971;50.028;9.258;2022-08-20T16:45:56;99357.22;;;23.22;86.85
13800;BME280;6971;50.028;9.258;2022-08-20T16:51:12;99358.94;;;23.56;86.20
13800;BME280;6971;50.028;9.258;2022-08-20T16:56:29;99362.28;;;23.50;84.10
13800;BME280;6971;50.028;9.258;2022-08-20T17:01:30;99352.88;;;23.29;85.66
13800;BME280;6971;50.028;9.258;2022-08-20T17:06:45;99356.88;;;23.00;89.64
13800;BME280;6971;50.028;9.258;2022-08-20T17:11:48;99363.66;;;22.61;92.74
13800;BME280;6971;50.028;9.258;2022-08-20T17:16:51;99356.00;;;22.40;96.47
13800;BME280;6971;50.028;9.258;2022-08-20T17:21:52;99355.94;;;22.23;98.63
13800;BME280;6971;50.028;9.258;2022-08-20T17:27:10;99364.06;;;22.05;100.00
13800;BME280;6971;50.028;9.258;2022-08-20T17:32:20;99368.75;;;21.76;100.00
13800;BME280;6971;50.028;9.258;2022-08-20T17:37:28;99371.09;;;21.35;100.00
13800;BME280;6971;50.028;9.258;2022-08-20T17:42:30;99372.63;;;21.19;100.00
13800;BME280;6971;50.028;9.258;2022-08-20T17:47:33;99387.41;;;21.23;100.00
13800;BME280;6971;50.028;9.258;2022-08-20T17:52:46;99393.91;;;21.03;100.00
13800;BME280;6971;50.028;9.258;2022-08-20T17:57:52;99400.94;;;20.76;100.00
13800;BME280;6971;50.028;9.258;2022-08-20T18:03:10;99411.25;;;20.42;100.00
13800;BME280;6971;50.028;9.258;2022-08-20T18:19:14;99416.63;;;19.75;100.00
13800;BME280;6971;50.028;9.258;2022-08-20T18:24:25;99419.88;;;19.49;100.00
13800;BME280;6971;50.028;9.258;2022-08-20T18:29:34;99428.16;;;19.06;100.00
13800;BME280;6971;50.028;9.258;2022-08-20T18:34:38;99438.63;;;18.88;100.00
13800;BME280;6971;50.028;9.258;2022-08-20T18:39:44;99452.34;;;18.73;100.00
13800;BME280;6971;50.028;9.258;2022-08-20T18:44:47;99448.31;;;18.48;100.00
13800;BME280;6971;50.028;9.258;2022-08-20T18:55:36;99458.88;;;18.07;100.00
13800;BME280;6971;50.028;9.258;2022-08-20T19:00:43;99465.66;;;17.90;100.00
13800;BME280;6971;50.028;9.258;2022-08-20T19:10:49;99471.66;;;17.38;100.00
13800;BME280;6971;50.028;9.258;2022-08-20T19:16:03;99479.09;;;17.22;100.00
13800;BME280;6971;50.028;9.258;2022-08-20T19:21:06;99482.16;;;17.06;100.00
13800;BME280;6971;50.028;9.258;2022-08-20T19:26:13;99485.53;;;16.86;100.00
13800;BME280;6971;50.028;9.258;2022-08-20T19:31:19;99490.63;;;16.66;100.00
13800;BME280;6971;50.028;9.258;2022-08-20T19:36:22;99493.88;;;16.47;100.00
13800;BME280;6971;50.028;9.258;2022-08-20T19:41:27;99497.09;;;16.27;100.00
13800;BME280;6971;50.028;9.258;2022-08-20T19:46:33;99502.16;;;16.19;100.00
13800;BME280;6971;50.028;9.258;2022-08-20T19:57:04;99488.09;;;15.94;100.00
13800;BME280;6971;50.028;9.258;2022-08-20T20:02:27;99495.28;;;15.92;100.00
13800;BME280;6971;50.028;9.258;2022-08-20T20:07:37;99499.41;;;15.85;100.00
13800;BME280;6971;50.028;9.258;2022-08-20T20:12:40;99499.13;;;15.76;100.00
13800;BME280;6971;50.028;9.258;2022-08-20T20:17:41;99504.53;;;15.75;100.00
13800;BME280;6971;50.028;9.258;2022-08-20T20:23:12;99497.44;;;15.75;100.00
13800;BME280;6971;50.028;9.258;2022-08-20T20:28:18;99499.34;;;15.73;100.00
13800;BME280;6971;50.028;9.258;2022-08-20T20:33:29;99509.06;;;15.61;100.00
13800;BME280;6971;50.028;9.258;2022-08-20T20:38:32;99510.84;;;15.49;100.00
13800;BME280;6971;50.028;9.258;2022-08-20T20:43:37;99516.81;;;15.40;100.00
13800;BME280;6971;50.028;9.258;2022-08-20T20:48:47;99511.75;;;15.24;100.00
13800;BME280;6971;50.028;9.258;2022-08-20T20:53:48;99510.31;;;15.07;100.00
13800;BME280;6971;50.028;9.258;2022-08-20T20:59:07;99509.50;;;14.93;100.00
13800;BME280;6971;50.028;9.258;2022-08-20T21:04:08;99512.28;;;14.79;100.00
13800;BME280;6971;50.028;9.258;2022-08-20T21:09:09;99510.25;;;14.69;100.00
13800;BME280;6971;50.028;9.258;2022-08-20T21:14:11;99517.59;;;14.53;100.00
13800;BME280;6971;50.028;9.258;2022-08-20T21:19:12;99507.63;;;14.43;100.00
13800;BME280;6971;50.028;9.258;2022-08-20T21:24:15;99512.41;;;14.38;100.00
13800;BME280;6971;50.028;9.258;2022-08-20T21:29:27;99517.91;;;14.35;100.00
13800;BME280;6971;50.028;9.258;2022-08-20T21:34:28;99512.06;;;14.30;100.00
13800;BME280;6971;50.028;9.258;2022-08-20T21:39:30;99508.47;;;14.31;100.00
13800;BME280;6971;50.028;9.258;2022-08-20T21:44:32;99520.22;;;14.27;100.00
13800;BME280;6971;50.028;9.258;2022-08-20T21:49:34;99516.06;;;14.09;100.00
13800;BME280;6971;50.028;9.258;2022-08-20T21:54:35;99514.25;;;14.10;100.00
13800;BME280;6971;50.028;9.258;2022-08-20T21:59:36;99515.41;;;14.06;100.00
13800;BME280;6971;50.028;9.258;2022-08-20T22:04:38;99519.44;;;13.99;100.00
13800;BME280;6971;50.028;9.258;2022-08-20T22:09:38;99518.34;;;13.88;100.00
13800;BME280;6971;50.028;9.258;2022-08-20T22:14:40;99518.41;;;13.74;100.00
13800;BME280;6971;50.028;9.258;2022-08-20T22:19:41;99515.66;;;13.75;100.00
13800;BME280;6971;50.028;9.258;2022-08-20T22:24:42;99516.38;;;13.64;100.00
13800;BME280;6971;50.028;9.258;2022-08-20T22:29:45;99517.22;;;13.65;100.00
13800;BME280;6971;50.028;9.258;2022-08-20T22:34:46;99518.78;;;13.40;100.00
13800;BME280;6971;50.028;9.258;2022-08-20T22:39:47;99509.50;;;13.47;100.00
13800;BME280;6971;50.028;9.258;2022-08-20T22:44:48;99513.69;;;13.37;100.00
13800;BME280;6971;50.028;9.258;2022-08-20T22:49:49;99522.13;;;13.29;100.00
13800;BME280;6971;50.028;9.258;2022-08-20T22:54:51;99521.38;;;13.27;100.00
13800;BME280;6971;50.028;9.258;2022-08-20T22:59:52;99518.66;;;13.14;100.00
13800;BME280;6971;50.028;9.258;2022-08-20T23:04:53;99522.91;;;13.16;100.00
13800;BME280;6971;50.028;9.258;2022-08-20T23:09:54;99525.56;;;13.02;100.00
13800;BME280;6971;50.028;9.258;2022-08-20T23:14:54;99531.72;;;13.02;100.00
13800;BME280;6971;50.028;9.258;2022-08-20T23:19:55;99530.59;;;12.92;100.00
13800;BME280;6971;50.028;9.258;2022-08-20T23:24:57;99539.19;;;12.81;100.00
13800;BME280;6971;50.028;9.258;2022-08-20T23:29:58;99531.81;;;12.72;100.00
13800;BME280;6971;50.028;9.258;2022-08-20T23:34:59;99533.16;;;12.64;100.00
13800;BME280;6971;50.028;9.258;2022-08-20T23:40:00;99530.47;;;12.50;100.00
13800;BME280;6971;50.028;9.258;2022-08-20T23:45:12;99526.72;;;12.54;100.00
13800;BME280;6971;50.028;9.258;2022-08-20T23:50:15;99523.31;;;12.52;100.00
13800;BME280;6971;50.028;9.258;2022-08-20T23:55:16;99523.75;;;12.44;100.00
